createdAt,value
2018-08-07T00:00:20.587Z,101106.12
2018-08-07T00:05:13.853Z,101096.95
2018-08-07T00:10:08.434Z,101100.02
2018-08-07T00:15:00.987Z,101091.03
2018-08-07T00:19:53.652Z,101090.28
2018-08-07T00:24:46.177Z,101088.50
2018-08-07T00:29:38.787Z,101088.56
2018-08-07T00:34:31.395Z,101085.63
2018-08-07T00:39:23.947Z,101083.78
2018-08-07T00:44:16.552Z,101074.26
2018-08-07T00:49:09.147Z,101074.89
2018-08-07T00:54:01.886Z,101068.16
2018-08-07T00:58:54.525Z,101063.53
2018-08-07T01:03:47.130Z,101054.83
2018-08-07T01:08:39.771Z,101058.48
2018-08-07T01:13:32.393Z,101044.59
2018-08-07T01:18:24.991Z,101043.94
2018-08-07T01:23:17.587Z,101036.52
2018-08-07T01:28:10.199Z,101042.14
2018-08-07T01:33:02.839Z,101039.01
2018-08-07T01:37:55.405Z,101032.80
2018-08-07T01:42:47.988Z,101033.83
2018-08-07T01:47:40.793Z,101031.14
2018-08-07T01:52:33.452Z,101030.64
2018-08-07T01:57:26.069Z,101021.36
2018-08-07T02:02:18.672Z,101020.45
2018-08-07T02:07:11.570Z,101020.19
2018-08-07T02:12:04.194Z,101018.55
2018-08-07T02:16:56.858Z,101017.97
2018-08-07T02:21:49.456Z,101021.08
2018-08-07T02:26:42.099Z,101016.19
2018-08-07T02:31:34.731Z,101010.31
2018-08-07T02:36:27.294Z,101003.67
2018-08-07T02:41:19.911Z,101004.14
2018-08-07T02:46:12.505Z,101002.70
2018-08-07T02:51:05.089Z,100999.66
2018-08-07T02:55:57.715Z,100994.98
2018-08-07T03:00:50.394Z,100990.85
2018-08-07T03:05:43.021Z,100998.17
2018-08-07T03:10:35.655Z,100992.84
2018-08-07T03:15:28.541Z,100991.62
2018-08-07T03:20:21.103Z,100993.70
2018-08-07T03:25:14.328Z,100990.74
2018-08-07T03:30:10.594Z,100987.59
2018-08-07T03:35:03.607Z,100988.52
2018-08-07T03:39:56.214Z,100992.73
2018-08-07T03:44:48.803Z,100991.14
2018-08-07T03:49:41.463Z,100996.95
2018-08-07T03:54:34.052Z,100996.54
2018-08-07T03:59:26.652Z,100999.61
2018-08-07T04:04:19.265Z,100998.59
2018-08-07T04:09:13.862Z,101004.94
2018-08-07T04:14:06.764Z,101000.10
2018-08-07T04:18:59.375Z,101001.21
2018-08-07T04:23:51.952Z,100993.28
2018-08-07T04:28:44.630Z,100994.42
2018-08-07T04:33:37.318Z,100987.86
2018-08-07T04:38:29.992Z,100993.87
2018-08-07T04:43:22.574Z,100991.39
2018-08-07T04:48:15.259Z,100990.57
2018-08-07T04:53:07.872Z,100991.88
2018-08-07T04:58:00.625Z,101002.78
2018-08-07T05:02:53.186Z,100998.67
2018-08-07T05:07:45.870Z,100988.74
2018-08-07T05:12:38.448Z,100990.02
2018-08-07T05:17:31.106Z,100989.16
2018-08-07T05:22:23.717Z,100993.80
2018-08-07T05:27:16.667Z,100998.55
2018-08-07T05:32:09.222Z,100995.41
2018-08-07T05:37:01.861Z,101000.75
2018-08-07T05:41:54.362Z,100998.67
2018-08-07T05:46:47.082Z,100996.63
2018-08-07T05:51:39.610Z,100997.03
2018-08-07T05:56:32.193Z,100997.98
2018-08-07T06:01:24.831Z,100998.43
2018-08-07T06:06:17.576Z,100989.04
2018-08-07T06:11:10.102Z,100996.59
2018-08-07T06:16:02.726Z,101001.70
2018-08-07T06:20:55.317Z,100994.77
2018-08-07T06:25:47.817Z,100996.82
2018-08-07T06:30:40.403Z,100999.75
2018-08-07T06:35:32.994Z,100994.42
2018-08-07T06:40:25.635Z,100999.75
2018-08-07T06:45:18.458Z,101000.14
2018-08-07T06:50:14.672Z,100995.95
2018-08-07T06:55:08.118Z,100992.21
2018-08-07T07:00:00.770Z,100986.83
2018-08-07T07:04:53.350Z,100989.16
2018-08-07T07:09:46.033Z,100978.00
2018-08-07T07:14:38.636Z,100988.06
2018-08-07T07:19:31.247Z,100978.73
2018-08-07T07:24:23.857Z,100973.64
2018-08-07T07:29:16.720Z,100976.13
2018-08-07T07:34:09.368Z,100969.88
2018-08-07T07:39:02.103Z,100966.23
2018-08-07T07:43:54.735Z,100959.82
2018-08-07T07:48:47.310Z,100960.02
2018-08-07T07:53:39.970Z,100961.77
2018-08-07T07:58:32.619Z,100961.95
2018-08-07T08:03:25.172Z,100962.73
2018-08-07T08:08:17.873Z,100960.16
2018-08-07T08:13:10.434Z,100951.19
2018-08-07T08:18:03.606Z,100942.06
2018-08-07T08:22:56.212Z,100942.22
2018-08-07T08:27:48.899Z,100943.39
2018-08-07T08:32:41.811Z,100933.57
2018-08-07T08:37:34.586Z,100936.23
2018-08-07T08:42:27.211Z,100930.91
2018-08-07T08:47:20.001Z,100926.02
2018-08-07T08:52:12.526Z,100920.45
2018-08-07T08:57:05.159Z,100930.24
2018-08-07T09:01:57.763Z,100929.66
2018-08-07T09:06:50.431Z,100919.70
2018-08-07T09:11:43.049Z,100924.48
2018-08-07T09:16:36.031Z,100923.27
2018-08-07T09:21:28.571Z,100914.05
2018-08-07T09:26:21.188Z,100915.91
2018-08-07T09:31:13.729Z,100905.36
2018-08-07T09:36:06.340Z,100901.75
2018-08-07T09:40:58.971Z,100908.33
2018-08-07T09:45:51.545Z,100896.50
2018-08-07T09:50:44.081Z,100894.52
2018-08-07T09:55:36.794Z,100887.64
2018-08-07T10:00:35.056Z,100873.05
2018-08-07T10:05:29.049Z,100874.73
2018-08-07T10:10:21.906Z,100864.39
2018-08-07T10:15:15.021Z,100864.39
2018-08-07T10:20:08.905Z,100857.11
2018-08-07T10:25:01.687Z,100851.38
2018-08-07T10:29:54.185Z,100846.74
2018-08-07T10:34:46.887Z,100844.80
2018-08-07T10:39:39.490Z,100840.72
2018-08-07T10:44:32.129Z,100829.19
2018-08-07T10:49:24.791Z,100825.27
2018-08-07T10:54:17.530Z,100822.34
2018-08-07T10:59:10.270Z,100817.03
2018-08-07T11:04:02.906Z,100812.93
2018-08-07T11:08:55.506Z,100805.27
2018-08-07T11:13:48.173Z,100792.94
2018-08-07T11:18:40.695Z,100803.81
2018-08-07T11:23:33.298Z,100798.71
2018-08-07T11:28:25.971Z,100789.47
2018-08-07T11:33:18.631Z,100798.93
2018-08-07T11:38:11.266Z,100790.13
2018-08-07T11:43:03.807Z,100782.58
2018-08-07T11:47:56.541Z,100775.35
2018-08-07T11:52:49.194Z,100769.77
2018-08-07T11:57:42.168Z,100765.19
2018-08-07T12:02:34.887Z,100757.62
2018-08-07T12:07:27.479Z,100757.66
2018-08-07T12:12:20.202Z,100757.27
2018-08-07T12:17:12.783Z,100745.07
2018-08-07T12:22:05.655Z,100749.26
2018-08-07T12:26:58.409Z,100739.88
2018-08-07T12:31:51.019Z,100736.23
2018-08-07T12:36:43.647Z,100731.59
2018-08-07T12:41:36.239Z,100731.19
2018-08-07T12:46:29.055Z,100730.02
2018-08-07T12:51:21.803Z,100724.02
2018-08-07T12:56:14.418Z,100712.32
2018-08-07T13:01:07.051Z,100707.38
2018-08-07T13:05:59.738Z,100706.66
2018-08-07T13:10:52.372Z,100690.14
2018-08-07T13:15:45.001Z,100699.75
2018-08-07T13:20:37.574Z,100691.92
2018-08-07T13:25:30.254Z,100688.41
2018-08-07T13:30:26.203Z,100690.92
2018-08-07T13:35:18.955Z,100677.37
2018-08-07T13:40:14.058Z,100676.51
2018-08-07T13:45:09.515Z,100679.02
2018-08-07T13:50:02.310Z,100672.66
2018-08-07T13:54:54.850Z,100670.23
2018-08-07T13:59:47.370Z,100663.98
2018-08-07T14:04:40.011Z,100662.31
2018-08-07T14:09:32.668Z,100649.92
2018-08-07T14:14:25.279Z,100648.03
2018-08-07T14:19:17.809Z,100646.34
2018-08-07T14:24:10.421Z,100639.47
2018-08-07T14:29:03.246Z,100636.24
2018-08-07T14:33:55.811Z,100620.89
2018-08-07T14:38:48.394Z,100625.96
2018-08-07T14:43:40.956Z,100618.63
2018-08-07T14:48:33.589Z,100618.36
2018-08-07T14:53:26.527Z,100617.44
2018-08-07T14:58:19.506Z,100617.52
2018-08-07T15:03:12.193Z,100610.52
2018-08-07T15:08:05.506Z,100610.55
2018-08-07T15:12:58.546Z,100602.72
2018-08-07T15:17:51.242Z,100592.03
2018-08-07T15:22:45.462Z,100600.30
2018-08-07T15:27:38.397Z,100603.02
2018-08-07T15:32:31.028Z,100589.03
2018-08-07T15:37:23.692Z,100589.73
2018-08-07T15:42:16.377Z,100589.47
2018-08-07T15:47:09.135Z,100585.92
2018-08-07T15:52:01.771Z,100580.91
2018-08-07T15:56:54.464Z,100585.37
2018-08-07T16:01:46.974Z,100575.84
2018-08-07T16:06:39.616Z,100565.26
2018-08-07T16:11:32.295Z,100567.09
2018-08-07T16:16:24.949Z,100565.19
2018-08-07T16:21:56.492Z,100567.61
2018-08-07T16:26:49.256Z,100554.61
2018-08-07T16:31:41.927Z,100558.51
2018-08-07T16:36:34.490Z,100559.83
2018-08-07T16:41:27.115Z,100558.89
2018-08-07T16:46:19.758Z,100553.55
2018-08-07T16:51:12.469Z,100548.95
2018-08-07T16:56:05.070Z,100543.41
2018-08-07T17:00:57.706Z,100551.08
2018-08-07T17:05:50.293Z,100547.08
2018-08-07T17:10:42.897Z,100549.08
2018-08-07T17:15:35.494Z,100540.48
2018-08-07T17:20:28.110Z,100541.71
2018-08-07T17:25:22.043Z,100542.55
2018-08-07T17:30:17.721Z,100539.36
2018-08-07T17:35:16.027Z,100532.80
2018-08-07T17:40:11.109Z,100527.05
2018-08-07T17:45:04.846Z,100534.70
2018-08-07T17:49:57.458Z,100532.88
2018-08-07T17:54:50.014Z,100533.92
2018-08-07T17:59:42.650Z,100541.96
2018-08-07T18:04:35.388Z,100548.80
2018-08-07T18:09:27.950Z,100551.02
2018-08-07T18:14:20.475Z,100561.61
2018-08-07T18:19:13.161Z,100556.83
2018-08-07T18:24:05.693Z,100555.62
2018-08-07T18:28:58.223Z,100558.44
2018-08-07T18:33:51.022Z,100560.56
2018-08-07T18:38:43.769Z,100554.63
2018-08-07T18:43:36.417Z,100559.67
2018-08-07T18:48:29.030Z,100564.30
2018-08-07T18:53:21.599Z,100567.64
2018-08-07T18:58:14.276Z,100573.37
2018-08-07T19:03:06.855Z,100565.10
2018-08-07T19:07:59.498Z,100566.63
2018-08-07T19:12:52.059Z,100562.94
2018-08-07T19:17:44.667Z,100563.21
2018-08-07T19:22:37.272Z,100567.61
2018-08-07T19:27:29.935Z,100566.42
2018-08-07T19:32:22.592Z,100571.97
2018-08-07T19:37:15.227Z,100569.56
2018-08-07T19:42:08.224Z,100569.53
2018-08-07T19:47:00.802Z,100571.69
2018-08-07T19:51:53.502Z,100564.64
2018-08-07T19:56:46.217Z,100574.74
2018-08-07T20:01:39.007Z,100571.70
2018-08-07T20:06:31.604Z,100568.86
2018-08-07T20:11:24.176Z,100571.35
2018-08-07T20:16:16.866Z,100580.86
2018-08-07T20:21:09.806Z,100574.21
2018-08-07T20:26:02.551Z,100576.70
2018-08-07T20:30:55.217Z,100570.85
2018-08-07T20:35:47.686Z,100574.76
2018-08-07T20:40:40.255Z,100575.45
2018-08-07T20:45:32.807Z,100568.56
2018-08-07T20:50:26.073Z,100577.06
2018-08-07T20:55:18.741Z,100578.98
2018-08-07T21:00:14.944Z,100579.22
2018-08-07T21:05:07.684Z,100575.95
2018-08-07T21:10:00.285Z,100573.30
2018-08-07T21:14:52.812Z,100584.92
2018-08-07T21:19:45.492Z,100585.98
2018-08-07T21:24:38.093Z,100589.27
2018-08-07T21:29:30.768Z,100591.75
2018-08-07T21:34:23.362Z,100592.98
2018-08-07T21:39:16.013Z,100590.26
2018-08-07T21:44:08.617Z,100587.90
2018-08-07T21:49:01.231Z,100587.09
2018-08-07T21:53:53.813Z,100577.94
2018-08-07T21:58:46.449Z,100574.18
2018-08-07T22:03:39.050Z,100582.05
2018-08-07T22:08:31.609Z,100565.98
2018-08-07T22:13:24.199Z,100563.78
2018-08-07T22:18:16.888Z,100568.34
2018-08-07T22:23:09.539Z,100567.92
2018-08-07T22:28:02.139Z,100573.94
2018-08-07T22:32:54.637Z,100579.41
2018-08-07T22:37:47.116Z,100581.11
2018-08-07T22:42:39.718Z,100582.89
2018-08-07T22:47:32.315Z,100586.12
2018-08-07T22:52:25.083Z,100593.50
2018-08-07T22:57:17.656Z,100588.22
2018-08-07T23:02:10.309Z,100582.17
2018-08-07T23:07:02.962Z,100586.91
2018-08-07T23:11:55.558Z,100575.50
2018-08-07T23:16:48.239Z,100563.76
2018-08-07T23:21:40.840Z,100564.75
2018-08-07T23:26:33.377Z,100562.27
2018-08-07T23:31:25.900Z,100558.91
2018-08-07T23:36:18.444Z,100554.84
2018-08-07T23:41:11.195Z,100551.53
2018-08-07T23:46:03.854Z,100548.92
2018-08-07T23:50:56.377Z,100543.51
2018-08-07T23:55:48.953Z,100550.00
